sensor_id;sensor_type;location;lat;lon;timestamp;pressure;altitude;pressure_sealevel;temperature;humidity
12799;BME280;19250;42.646;26.980;2023-01-30T00:01:23;99427.44;;;2.82;100.00
12799;BME280;19250;42.646;26.980;2023-01-30T00:03:50;99420.19;;;2.85;100.00
12799;BME280;19250;42.646;26.980;2023-01-30T00:06:17;99414.66;;;3.67;100.00
12799;BME280;19250;42.646;26.980;2023-01-30T00:08:45;99417.91;;;4.08;100.00
12799;BME280;19250;42.646;26.980;2023-01-30T00:11:16;99421.00;;;4.38;100.00
12799;BME280;19250;42.646;26.980;2023-01-30T00:13:44;99405.13;;;4.51;98.28
12799;BME280;19250;42.646;26.980;2023-01-30T00:16:12;99406.38;;;4.22;98.71
12799;BME280;19250;42.646;26.980;2023-01-30T00:18:41;99404.78;;;4.19;98.36
12799;BME280;19250;42.646;26.980;2023-01-30T00:21:10;99411.59;;;3.48;100.00
12799;BME280;19250;42.646;26.980;2023-01-30T00:23:38;99240.44;;;2.31;100.00
12799;BME280;19250;42.646;26.980;2023-01-30T00:26:06;99404.75;;;3.06;100.00
12799;BME280;19250;42.646;26.980;2023-01-30T00:28:36;99399.59;;;2.51;100.00
12799;BME280;19250;42.646;26.980;2023-01-30T00:31:04;99400.25;;;3.08;100.00
12799;BME280;19250;42.646;26.980;2023-01-30T00:33:31;99395.00;;;3.96;100.00
12799;BME280;19250;42.646;26.980;2023-01-30T00:36:00;99396.94;;;3.69;100.00
12799;BME280;19250;42.646;26.980;2023-01-30T00:38:28;99391.94;;;4.02;100.00
12799;BME280;19250;42.646;26.980;2023-01-30T00:40:55;99396.53;;;4.36;99.92
12799;BME280;19250;42.646;26.980;2023-01-30T00:43:22;99319.91;;;3.89;99.11
12799;BME280;19250;42.646;26.980;2023-01-30T00:46:15;99395.94;;;3.19;100.00
12799;BME280;19250;42.646;26.980;2023-01-30T00:49:03;99394.81;;;3.87;100.00
12799;BME280;19250;42.646;26.980;2023-01-30T00:51:31;99403.84;;;4.20;99.91
12799;BME280;19250;42.646;26.980;2023-01-30T00:53:58;99382.41;;;4.25;99.65
12799;BME280;19250;42.646;26.980;2023-01-30T00:56:25;99395.88;;;4.46;98.96
12799;BME280;19250;42.646;26.980;2023-01-30T00:58:52;99398.63;;;3.70;100.00
12799;BME280;19250;42.646;26.980;2023-01-30T01:01:21;99397.03;;;3.67;100.00
12799;BME280;19250;42.646;26.980;2023-01-30T01:03:48;99385.03;;;3.63;100.00
12799;BME280;19250;42.646;26.980;2023-01-30T01:06:15;99389.53;;;3.23;100.00
12799;BME280;19250;42.646;26.980;2023-01-30T01:08:43;99390.47;;;2.83;100.00
12799;BME280;19250;42.646;26.980;2023-01-30T01:11:10;99379.31;;;2.53;100.00
12799;BME280;19250;42.646;26.980;2023-01-30T01:13:49;99387.38;;;3.03;100.00
12799;BME280;19250;42.646;26.980;2023-01-30T01:16:17;99383.22;;;3.39;100.00
12799;BME280;19250;42.646;26.980;2023-01-30T01:18:46;99382.16;;;3.28;100.00
12799;BME280;19250;42.646;26.980;2023-01-30T01:21:13;99385.03;;;3.51;100.00
12799;BME280;19250;42.646;26.980;2023-01-30T01:23:41;99382.28;;;2.61;100.00
12799;BME280;19250;42.646;26.980;2023-01-30T01:26:08;99375.03;;;2.38;100.00
12799;BME280;19250;42.646;26.980;2023-01-30T01:28:35;99374.84;;;2.67;100.00
12799;BME280;19250;42.646;26.980;2023-01-30T01:31:07;99287.66;;;2.33;100.00
12799;BME280;19250;42.646;26.980;2023-01-30T01:33:35;99373.41;;;3.28;100.00
12799;BME280;19250;42.646;26.980;2023-01-30T01:36:05;99367.38;;;2.20;100.00
12799;BME280;19250;42.646;26.980;2023-01-30T01:38:32;99354.94;;;1.82;100.00
12799;BME280;19250;42.646;26.980;2023-01-30T01:41:00;99347.63;;;1.44;100.00
12799;BME280;19250;42.646;26.980;2023-01-30T01:43:33;99349.69;;;1.82;100.00
12799;BME280;19250;42.646;26.980;2023-01-30T01:46:02;99345.63;;;2.04;100.00
12799;BME280;19250;42.646;26.980;2023-01-30T01:48:34;99338.44;;;2.74;100.00
12799;BME280;19250;42.646;26.980;2023-01-30T01:51:09;99342.72;;;3.02;100.00
12799;BME280;19250;42.646;26.980;2023-01-30T01:53:42;99326.59;;;3.32;100.00
12799;BME280;19250;42.646;26.980;2023-01-30T01:56:13;99351.13;;;3.82;100.00
12799;BME280;19250;42.646;26.980;2023-01-30T01:58:46;99351.25;;;3.68;100.00
12799;BME280;19250;42.646;26.980;2023-01-30T02:01:15;99349.69;;;3.53;100.00
12799;BME280;19250;42.646;26.980;2023-01-30T02:03:47;99341.78;;;3.28;100.00
12799;BME280;19250;42.646;26.980;2023-01-30T02:06:18;99338.81;;;3.58;100.00
12799;BME280;19250;42.646;26.980;2023-01-30T02:08:48;99266.13;;;2.92;100.00
12799;BME280;19250;42.646;26.980;2023-01-30T02:11:21;99329.94;;;2.83;100.00
12799;BME280;19250;42.646;26.980;2023-01-30T02:13:52;99306.97;;;1.92;100.00
12799;BME280;19250;42.646;26.980;2023-01-30T02:16:20;99321.00;;;2.05;100.00
12799;BME280;19250;42.646;26.980;2023-01-30T02:18:48;99331.22;;;1.83;100.00
12799;BME280;19250;42.646;26.980;2023-01-30T02:21:53;99318.72;;;1.73;100.00
12799;BME280;19250;42.646;26.980;2023-01-30T02:24:53;99319.19;;;1.51;100.00
12799;BME280;19250;42.646;26.980;2023-01-30T02:27:36;99314.78;;;1.23;100.00
12799;BME280;19250;42.646;26.980;2023-01-30T02:30:53;99308.41;;;1.13;100.00
12799;BME280;19250;42.646;26.980;2023-01-30T02:33:28;99313.25;;;0.91;100.00
12799;BME280;19250;42.646;26.980;2023-01-30T02:35:59;99310.75;;;1.18;100.00
12799;BME280;19250;42.646;26.980;2023-01-30T02:38:35;99303.25;;;1.54;100.00
12799;BME280;19250;42.646;26.980;2023-01-30T02:41:13;99309.91;;;1.45;100.00
12799;BME280;19250;42.646;26.980;2023-01-30T02:43:53;99299.97;;;1.50;100.00
12799;BME280;19250;42.646;26.980;2023-01-30T02:46:28;99305.13;;;1.52;100.00
12799;BME280;19250;42.646;26.980;2023-01-30T02:49:03;99301.94;;;1.47;100.00
12799;BME280;19250;42.646;26.980;2023-01-30T02:51:34;99299.69;;;1.27;100.00
12799;BME280;19250;42.646;26.980;2023-01-30T02:54:01;99242.09;;;0.95;100.00
12799;BME280;19250;42.646;26.980;2023-01-30T02:56:40;99302.44;;;1.25;100.00
12799;BME280;19250;42.646;26.980;2023-01-30T02:59:08;99297.34;;;1.22;100.00
12799;BME280;19250;42.646;26.980;2023-01-30T03:01:41;99295.25;;;0.99;100.00
12799;BME280;19250;42.646;26.980;2023-01-30T03:04:23;99300.25;;;1.03;100.00
12799;BME280;19250;42.646;26.980;2023-01-30T03:06:58;99297.13;;;0.97;100.00
12799;BME280;19250;42.646;26.980;2023-01-30T03:09:29;99289.03;;;0.86;100.00
12799;BME280;19250;42.646;26.980;2023-01-30T03:12:02;99283.16;;;0.82;100.00
12799;BME280;19250;42.646;26.980;2023-01-30T03:14:31;99286.53;;;0.84;100.00
12799;BME280;19250;42.646;26.980;2023-01-30T03:17:03;99283.03;;;0.84;100.00
12799;BME280;19250;42.646;26.980;2023-01-30T03:19:31;99120.03;;;0.18;100.00
12799;BME280;19250;42.646;26.980;2023-01-30T03:21:58;99275.13;;;1.28;100.00
12799;BME280;19250;42.646;26.980;2023-01-30T03:24:26;99267.22;;;1.56;100.00
12799;BME280;19250;42.646;26.980;2023-01-30T03:26:56;99278.69;;;2.49;100.00
12799;BME280;19250;42.646;26.980;2023-01-30T03:29:24;99285.91;;;2.85;100.00
12799;BME280;19250;42.646;26.980;2023-01-30T03:31:51;99293.84;;;3.36;100.00
12799;BME280;19250;42.646;26.980;2023-01-30T03:34:20;99311.63;;;3.70;100.00
12799;BME280;19250;42.646;26.980;2023-01-30T03:36:47;99282.84;;;3.67;100.00
12799;BME280;19250;42.646;26.980;2023-01-30T03:39:15;99310.53;;;3.85;100.00
12799;BME280;19250;42.646;26.980;2023-01-30T03:41:42;99304.44;;;4.08;100.00
12799;BME280;19250;42.646;26.980;2023-01-30T03:44:10;99303.16;;;4.37;100.00
12799;BME280;19250;42.646;26.980;2023-01-30T03:46:37;99228.22;;;3.93;100.00
12799;BME280;19250;42.646;26.980;2023-01-30T03:49:04;99297.34;;;4.21;100.00
12799;BME280;19250;42.646;26.980;2023-01-30T03:51:33;99300.44;;;4.39;100.00
12799;BME280;19250;42.646;26.980;2023-01-30T03:54:00;99303.50;;;4.57;100.00
12799;BME280;19250;42.646;26.980;2023-01-30T03:56:27;99297.88;;;4.37;100.00
12799;BME280;19250;42.646;26.980;2023-01-30T03:58:55;99301.00;;;4.55;100.00
12799;BME280;19250;42.646;26.980;2023-01-30T04:01:22;99296.00;;;4.39;100.00
12799;BME280;19250;42.646;26.980;2023-01-30T04:03:49;99293.72;;;2.99;100.00
12799;BME280;19250;42.646;26.980;2023-01-30T04:06:16;99291.69;;;3.03;100.00
12799;BME280;19250;42.646;26.980;2023-01-30T04:08:45;99284.72;;;3.65;100.00
12799;BME280;19250;42.646;26.980;2023-01-30T04:11:12;99285.06;;;3.97;100.00
12799;BME280;19250;42.646;26.980;2023-01-30T04:13:39;99291.03;;;4.11;100.00
12799;BME280;19250;42.646;26.980;2023-01-30T04:16:14;99267.28;;;3.88;100.00
12799;BME280;19250;42.646;26.980;2023-01-30T04:18:42;99282.44;;;4.20;100.00
12799;BME280;19250;42.646;26.980;2023-01-30T04:21:09;99277.16;;;4.44;100.00
12799;BME280;19250;42.646;26.980;2023-01-30T04:23:36;99285.59;;;4.49;100.00
12799;BME280;19250;42.646;26.980;2023-01-30T04:26:05;99157.31;;;3.64;100.00
12799;BME280;19250;42.646;26.980;2023-01-30T04:28:33;99282.84;;;4.51;100.00
12799;BME280;19250;42.646;26.980;2023-01-30T04:31:01;99278.13;;;4.43;100.00
12799;BME280;19250;42.646;26.980;2023-01-30T04:33:28;99272.22;;;4.63;100.00
12799;BME280;19250;42.646;26.980;2023-01-30T04:35:57;99273.28;;;4.61;100.00
12799;BME280;19250;42.646;26.980;2023-01-30T04:38:25;99278.13;;;4.19;100.00
12799;BME280;19250;42.646;26.980;2023-01-30T04:40:54;99289.06;;;3.66;100.00
12799;BME280;19250;42.646;26.980;2023-01-30T04:43:23;99291.88;;;3.75;100.00
12799;BME280;19250;42.646;26.980;2023-01-30T04:45:51;99211.75;;;3.16;100.00
12799;BME280;19250;42.646;26.980;2023-01-30T04:48:20;99285.16;;;3.46;100.00
12799;BME280;19250;42.646;26.980;2023-01-30T04:50:51;99280.03;;;3.45;100.00
12799;BME280;19250;42.646;26.980;2023-01-30T04:53:19;99278.75;;;3.38;100.00
12799;BME280;19250;42.646;26.980;2023-01-30T04:55:46;99262.28;;;3.59;100.00
12799;BME280;19250;42.646;26.980;2023-01-30T04:58:14;99280.59;;;3.73;100.00
12799;BME280;19250;42.646;26.980;2023-01-30T05:00:43;99276.81;;;3.65;100.00
12799;BME280;19250;42.646;26.980;2023-01-30T05:03:10;99269.59;;;3.79;100.00
12799;BME280;19250;42.646;26.980;2023-01-30T05:05:37;99179.81;;;3.21;100.00
12799;BME280;19250;42.646;26.980;2023-01-30T05:08:04;99273.09;;;3.80;100.00
12799;BME280;19250;42.646;26.980;2023-01-30T05:10:32;99276.41;;;3.58;100.00
12799;BME280;19250;42.646;26.980;2023-01-30T05:13:01;99275.19;;;3.26;100.00
12799;BME280;19250;42.646;26.980;2023-01-30T05:15:29;99268.34;;;3.36;100.00
12799;BME280;19250;42.646;26.980;2023-01-30T05:17:57;99268.44;;;3.22;100.00
12799;BME280;19250;42.646;26.980;2023-01-30T05:20:25;99273.66;;;3.60;100.00
12799;BME280;19250;42.646;26.980;2023-01-30T05:22:52;99266.81;;;3.70;100.00
12799;BME280;19250;42.646;26.980;2023-01-30T05:25:19;99270.22;;;3.83;100.00
12799;BME280;19250;42.646;26.980;2023-01-30T05:27:46;99268.56;;;3.82;100.00
12799;BME280;19250;42.646;26.980;2023-01-30T05:30:14;99273.00;;;3.69;100.00
12799;BME280;19250;42.646;26.980;2023-01-30T05:32:41;99284.91;;;3.74;100.00
12799;BME280;19250;42.646;26.980;2023-01-30T05:35:10;99271.84;;;3.73;100.00
12799;BME280;19250;42.646;26.980;2023-01-30T05:37:37;99275.53;;;3.58;100.00
12799;BME280;19250;42.646;26.980;2023-01-30T05:40:05;99280.72;;;3.59;100.00
12799;BME280;19250;42.646;26.980;2023-01-30T05:42:32;99278.53;;;3.15;100.00
12799;BME280;19250;42.646;26.980;2023-01-30T05:44:59;99285.38;;;2.80;100.00
12799;BME280;19250;42.646;26.980;2023-01-30T05:47:26;99288.41;;;2.74;100.00
12799;BME280;19250;42.646;26.980;2023-01-30T05:49:54;99284.50;;;2.67;100.00
12799;BME280;19250;42.646;26.980;2023-01-30T05:52:22;99284.81;;;2.62;100.00
12799;BME280;19250;42.646;26.980;2023-01-30T05:54:49;99284.63;;;2.65;100.00
12799;BME280;19250;42.646;26.980;2023-01-30T05:57:17;99279.06;;;2.43;100.00
12799;BME280;19250;42.646;26.980;2023-01-30T05:59:44;99285.88;;;2.06;100.00
12799;BME280;19250;42.646;26.980;2023-01-30T06:02:11;99284.44;;;2.42;100.00
12799;BME280;19250;42.646;26.980;2023-01-30T06:04:38;99283.44;;;2.03;100.00
12799;BME280;19250;42.646;26.980;2023-01-30T06:07:05;99275.44;;;2.05;100.00
12799;BME280;19250;42.646;26.980;2023-01-30T06:09:36;99277.41;;;2.55;100.00
12799;BME280;19250;42.646;26.980;2023-01-30T06:12:05;99273.00;;;2.55;100.00
12799;BME280;19250;42.646;26.980;2023-01-30T06:14:33;99274.53;;;2.72;100.00
12799;BME280;19250;42.646;26.980;2023-01-30T06:17:00;99284.03;;;3.25;100.00
12799;BME280;19250;42.646;26.980;2023-01-30T06:19:27;99278.22;;;3.45;100.00
12799;BME280;19250;42.646;26.980;2023-01-30T06:21:55;99280.03;;;3.32;100.00
12799;BME280;19250;42.646;26.980;2023-01-30T06:24:24;99274.63;;;3.34;100.00
12799;BME280;19250;42.646;26.980;2023-01-30T06:26:53;99283.00;;;3.76;100.00
12799;BME280;19250;42.646;26.980;2023-01-30T06:29:20;99262.91;;;3.63;100.00
12799;BME280;19250;42.646;26.980;2023-01-30T06:31:47;99286.75;;;3.49;100.00
12799;BME280;19250;42.646;26.980;2023-01-30T06:34:14;99277.28;;;3.34;100.00
12799;BME280;19250;42.646;26.980;2023-01-30T06:36:42;99279.16;;;3.44;100.00
12799;BME280;19250;42.646;26.980;2023-01-30T06:39:09;99283.19;;;2.87;100.00
12799;BME280;19250;42.646;26.980;2023-01-30T06:41:36;99274.13;;;2.78;100.00
12799;BME280;19250;42.646;26.980;2023-01-30T06:44:05;99279.28;;;2.92;100.00
12799;BME280;19250;42.646;26.980;2023-01-30T06:46:32;99270.75;;;2.89;100.00
12799;BME280;19250;42.646;26.980;2023-01-30T06:48:59;99271.78;;;2.34;100.00
12799;BME280;19250;42.646;26.980;2023-01-30T06:51:26;99264.84;;;2.33;100.00
12799;BME280;19250;42.646;26.980;2023-01-30T06:53:54;99262.91;;;2.62;100.00
12799;BME280;19250;42.646;26.980;2023-01-30T06:56:21;99176.19;;;2.08;100.00
12799;BME280;19250;42.646;26.980;2023-01-30T06:58:48;99266.84;;;2.69;100.00
12799;BME280;19250;42.646;26.980;2023-01-30T07:01:17;99261.75;;;1.73;100.00
12799;BME280;19250;42.646;26.980;2023-01-30T07:03:45;99265.41;;;2.38;100.00
12799;BME280;19250;42.646;26.980;2023-01-30T07:06:13;99259.16;;;2.91;100.00
12799;BME280;19250;42.646;26.980;2023-01-30T07:08:41;99265.78;;;2.97;100.00
12799;BME280;19250;42.646;26.980;2023-01-30T07:11:09;99250.09;;;2.95;100.00
12799;BME280;19250;42.646;26.980;2023-01-30T07:13:36;99260.66;;;2.43;100.00
12799;BME280;19250;42.646;26.980;2023-01-30T07:16:03;99256.25;;;1.90;100.00
12799;BME280;19250;42.646;26.980;2023-01-30T07:18:32;99252.09;;;2.27;100.00
12799;BME280;19250;42.646;26.980;2023-01-30T07:20:59;99247.34;;;1.38;100.00
12799;BME280;19250;42.646;26.980;2023-01-30T07:23:26;99242.19;;;1.36;100.00
12799;BME280;19250;42.646;26.980;2023-01-30T07:25:54;99243.00;;;2.18;100.00
12799;BME280;19250;42.646;26.980;2023-01-30T07:28:21;99247.84;;;2.64;100.00
12799;BME280;19250;42.646;26.980;2023-01-30T07:30:48;99246.19;;;3.26;100.00
12799;BME280;19250;42.646;26.980;2023-01-30T07:33:17;99261.88;;;3.40;100.00
12799;BME280;19250;42.646;26.980;2023-01-30T07:35:46;99212.91;;;2.74;100.00
12799;BME280;19250;42.646;26.980;2023-01-30T07:38:14;99258.09;;;3.32;100.00
12799;BME280;19250;42.646;26.980;2023-01-30T07:40:41;99262.00;;;3.39;100.00
12799;BME280;19250;42.646;26.980;2023-01-30T07:43:10;99261.25;;;3.37;100.00
12799;BME280;19250;42.646;26.980;2023-01-30T07:45:39;99255.03;;;2.74;100.00
12799;BME280;19250;42.646;26.980;2023-01-30T07:48:07;99246.50;;;3.21;100.00
12799;BME280;19250;42.646;26.980;2023-01-30T07:50:34;99256.06;;;2.20;100.00
12799;BME280;19250;42.646;26.980;2023-01-30T07:53:04;99228.19;;;1.91;100.00
12799;BME280;19250;42.646;26.980;2023-01-30T07:55:31;99245.34;;;1.96;100.00
12799;BME280;19250;42.646;26.980;2023-01-30T07:57:59;99242.75;;;1.82;100.00
12799;BME280;19250;42.646;26.980;2023-01-30T08:00:26;99242.50;;;1.99;100.00
12799;BME280;19250;42.646;26.980;2023-01-30T08:02:53;99230.53;;;3.12;100.00
12799;BME280;19250;42.646;26.980;2023-01-30T08:05:21;99237.50;;;4.22;100.00
12799;BME280;19250;42.646;26.980;2023-01-30T08:07:48;99239.31;;;5.24;100.00
12799;BME280;19250;42.646;26.980;2023-01-30T08:10:17;99245.94;;;5.52;100.00
12799;BME280;19250;42.646;26.980;2023-01-30T08:12:44;99247.84;;;3.40;100.00
12799;BME280;19250;42.646;26.980;2023-01-30T08:15:11;99252.63;;;3.09;100.00
12799;BME280;19250;42.646;26.980;2023-01-30T08:17:38;99221.88;;;3.95;100.00
12799;BME280;19250;42.646;26.980;2023-01-30T08:20:07;99237.09;;;4.96;100.00
12799;BME280;19250;42.646;26.980;2023-01-30T08:22:34;99243.72;;;5.79;100.00
12799;BME280;19250;42.646;26.980;2023-01-30T08:25:01;99256.19;;;6.53;95.86
12799;BME280;19250;42.646;26.980;2023-01-30T08:27:30;99252.44;;;6.24;93.44
12799;BME280;19250;42.646;26.980;2023-01-30T08:29:57;99244.56;;;6.66;92.83
12799;BME280;19250;42.646;26.980;2023-01-30T08:32:24;99249.34;;;6.72;91.07
12799;BME280;19250;42.646;26.980;2023-01-30T08:34:51;99251.50;;;6.78;90.96
12799;BME280;19250;42.646;26.980;2023-01-30T08:37:19;99246.50;;;7.05;89.14
12799;BME280;19250;42.646;26.980;2023-01-30T08:39:46;99250.97;;;6.84;89.99
12799;BME280;19250;42.646;26.980;2023-01-30T08:42:13;99240.50;;;6.82;91.31
12799;BME280;19250;42.646;26.980;2023-01-30T08:44:42;99252.06;;;6.29;91.41
12799;BME280;19250;42.646;26.980;2023-01-30T08:47:09;99234.50;;;6.80;91.13
12799;BME280;19250;42.646;26.980;2023-01-30T08:49:36;99239.34;;;6.75;89.82
12799;BME280;19250;42.646;26.980;2023-01-30T08:52:03;99236.44;;;6.99;89.16
12799;BME280;19250;42.646;26.980;2023-01-30T08:54:30;99243.19;;;7.12;88.17
12799;BME280;19250;42.646;26.980;2023-01-30T08:56:58;99243.28;;;6.28;90.06
12799;BME280;19250;42.646;26.980;2023-01-30T08:59:25;99224.63;;;5.54;97.05
12799;BME280;19250;42.646;26.980;2023-01-30T09:01:54;99224.28;;;5.25;97.95
12799;BME280;19250;42.646;26.980;2023-01-30T09:04:21;99141.75;;;4.99;97.95
12799;BME280;19250;42.646;26.980;2023-01-30T09:06:49;99212.97;;;6.21;93.66
12799;BME280;19250;42.646;26.980;2023-01-30T09:09:16;99212.41;;;5.30;94.46
12799;BME280;19250;42.646;26.980;2023-01-30T09:11:44;99205.41;;;4.39;100.00
12799;BME280;19250;42.646;26.980;2023-01-30T09:14:12;99174.13;;;3.63;100.00
12799;BME280;19250;42.646;26.980;2023-01-30T09:16:41;99190.63;;;4.36;100.00
12799;BME280;19250;42.646;26.980;2023-01-30T09:19:09;99191.75;;;4.56;100.00
12799;BME280;19250;42.646;26.980;2023-01-30T09:21:36;99186.78;;;4.40;100.00
12799;BME280;19250;42.646;26.980;2023-01-30T09:24:05;99184.88;;;5.11;100.00
12799;BME280;19250;42.646;26.980;2023-01-30T09:26:32;99091.31;;;5.13;100.00
12799;BME280;19250;42.646;26.980;2023-01-30T09:28:59;99177.69;;;3.62;100.00
12799;BME280;19250;42.646;26.980;2023-01-30T09:31:26;99174.63;;;3.32;100.00
12799;BME280;19250;42.646;26.980;2023-01-30T09:33:53;99172.66;;;3.59;100.00
12799;BME280;19250;42.646;26.980;2023-01-30T09:36:22;99157.72;;;4.18;100.00
12799;BME280;19250;42.646;26.980;2023-01-30T09:38:49;99156.31;;;4.36;100.00
12799;BME280;19250;42.646;26.980;2023-01-30T09:41:30;99157.81;;;4.63;100.00
12799;BME280;19250;42.646;26.980;2023-01-30T09:44:13;99159.28;;;4.67;100.00
12799;BME280;19250;42.646;26.980;2023-01-30T09:46:47;99155.44;;;4.82;100.00
12799;BME280;19250;42.646;26.980;2023-01-30T09:49:28;99144.50;;;4.86;100.00
12799;BME280;19250;42.646;26.980;2023-01-30T09:52:04;99153.03;;;3.63;100.00
12799;BME280;19250;42.646;26.980;2023-01-30T09:54:36;99142.22;;;3.79;100.00
12799;BME280;19250;42.646;26.980;2023-01-30T09:57:11;99126.06;;;4.29;100.00
12799;BME280;19250;42.646;26.980;2023-01-30T09:59:47;99107.16;;;4.69;100.00
12799;BME280;19250;42.646;26.980;2023-01-30T10:02:34;99133.97;;;4.29;100.00
12799;BME280;19250;42.646;26.980;2023-01-30T10:05:03;99126.16;;;3.82;100.00
12799;BME280;19250;42.646;26.980;2023-01-30T10:07:46;99115.66;;;4.04;100.00
12799;BME280;19250;42.646;26.980;2023-01-30T10:10:20;99114.56;;;4.42;100.00
12799;BME280;19250;42.646;26.980;2023-01-30T10:13:01;99110.38;;;3.09;100.00
12799;BME280;19250;42.646;26.980;2023-01-30T10:15:40;99103.38;;;3.81;100.00
12799;BME280;19250;42.646;26.980;2023-01-30T10:18:38;99102.19;;;3.01;100.00
12799;BME280;19250;42.646;26.980;2023-01-30T10:21:16;99096.66;;;2.81;100.00
12799;BME280;19250;42.646;26.980;2023-01-30T10:23:59;99089.81;;;2.78;100.00
12799;BME280;19250;42.646;26.980;2023-01-30T10:26:30;99089.84;;;2.65;100.00
12799;BME280;19250;42.646;26.980;2023-01-30T10:29:00;99088.69;;;3.66;100.00
12799;BME280;19250;42.646;26.980;2023-01-30T10:31:36;99061.28;;;3.79;100.00
12799;BME280;19250;42.646;26.980;2023-01-30T10:34:10;99081.13;;;3.01;100.00
12799;BME280;19250;42.646;26.980;2023-01-30T10:36:41;99078.91;;;3.08;100.00
12799;BME280;19250;42.646;26.980;2023-01-30T10:39:24;99071.25;;;3.28;100.00
12799;BME280;19250;42.646;26.980;2023-01-30T10:42:02;99072.06;;;4.22;100.00
12799;BME280;19250;42.646;26.980;2023-01-30T10:44:33;99063.69;;;3.48;100.00
12799;BME280;19250;42.646;26.980;2023-01-30T10:47:13;99064.59;;;3.70;100.00
12799;BME280;19250;42.646;26.980;2023-01-30T10:49:48;99052.34;;;3.93;100.00
12799;BME280;19250;42.646;26.980;2023-01-30T10:52:29;99036.94;;;4.33;100.00
12799;BME280;19250;42.646;26.980;2023-01-30T10:55:09;99025.97;;;4.04;100.00
12799;BME280;19250;42.646;26.980;2023-01-30T10:57:51;99039.44;;;5.01;100.00
12799;BME280;19250;42.646;26.980;2023-01-30T11:00:26;99025.66;;;4.20;100.00
12799;BME280;19250;42.646;26.980;2023-01-30T11:05:47;98944.06;;;3.26;100.00
12799;BME280;19250;42.646;26.980;2023-01-30T11:08:21;99011.94;;;3.93;100.00
12799;BME280;19250;42.646;26.980;2023-01-30T11:10:50;99004.31;;;4.23;100.00
12799;BME280;19250;42.646;26.980;2023-01-30T11:13:19;98994.34;;;4.15;100.00
12799;BME280;19250;42.646;26.980;2023-01-30T11:15:49;99001.31;;;4.38;100.00
12799;BME280;19250;42.646;26.980;2023-01-30T11:18:18;98998.19;;;4.67;100.00
12799;BME280;19250;42.646;26.980;2023-01-30T11:21:02;99001.38;;;5.67;100.00
12799;BME280;19250;42.646;26.980;2023-01-30T11:23:32;98997.69;;;5.79;98.08
12799;BME280;19250;42.646;26.980;2023-01-30T11:26:02;98996.34;;;5.85;97.90
12799;BME280;19250;42.646;26.980;2023-01-30T11:28:35;98988.41;;;5.64;97.94
12799;BME280;19250;42.646;26.980;2023-01-30T11:31:15;98985.88;;;4.99;100.00
12799;BME280;19250;42.646;26.980;2023-01-30T11:33:43;98982.09;;;4.25;100.00
12799;BME280;19250;42.646;26.980;2023-01-30T11:36:24;98976.13;;;3.55;100.00
12799;BME280;19250;42.646;26.980;2023-01-30T11:38:57;98967.13;;;3.47;100.00
12799;BME280;19250;42.646;26.980;2023-01-30T11:41:26;98964.69;;;4.78;100.00
12799;BME280;19250;42.646;26.980;2023-01-30T11:43:59;98959.50;;;4.88;100.00
12799;BME280;19250;42.646;26.980;2023-01-30T11:46:30;98952.97;;;5.03;100.00
12799;BME280;19250;42.646;26.980;2023-01-30T11:49:00;98949.22;;;5.37;100.00
12799;BME280;19250;42.646;26.980;2023-01-30T11:51:29;98940.72;;;5.34;100.00
12799;BME280;19250;42.646;26.980;2023-01-30T11:54:02;98940.81;;;5.32;100.00
12799;BME280;19250;42.646;26.980;2023-01-30T11:56:33;98935.56;;;5.53;100.00
12799;BME280;19250;42.646;26.980;2023-01-30T11:59:03;98932.13;;;4.78;100.00
12799;BME280;19250;42.646;26.980;2023-01-30T12:01:33;98927.75;;;4.56;100.00
12799;BME280;19250;42.646;26.980;2023-01-30T12:04:05;98925.28;;;5.39;100.00
12799;BME280;19250;42.646;26.980;2023-01-30T12:06:34;98931.47;;;6.41;96.77
12799;BME280;19250;42.646;26.980;2023-01-30T12:09:02;98918.03;;;5.31;99.17
12799;BME280;19250;42.646;26.980;2023-01-30T12:11:41;98919.91;;;6.12;97.09
12799;BME280;19250;42.646;26.980;2023-01-30T12:14:20;98910.97;;;5.83;96.00
12799;BME280;19250;42.646;26.980;2023-01-30T12:17:00;98915.69;;;5.79;94.88
12799;BME280;19250;42.646;26.980;2023-01-30T12:19:39;98906.19;;;5.35;98.66
12799;BME280;19250;42.646;26.980;2023-01-30T12:22:17;98908.03;;;6.37;94.60
12799;BME280;19250;42.646;26.980;2023-01-30T12:24:54;98911.53;;;5.56;94.39
12799;BME280;19250;42.646;26.980;2023-01-30T12:27:30;98896.44;;;4.94;100.00
12799;BME280;19250;42.646;26.980;2023-01-30T12:30:05;98896.03;;;5.93;98.82
12799;BME280;19250;42.646;26.980;2023-01-30T12:32:42;98886.34;;;5.20;100.00
12799;BME280;19250;42.646;26.980;2023-01-30T12:35:15;98886.56;;;5.28;99.54
12799;BME280;19250;42.646;26.980;2023-01-30T12:37:53;98884.16;;;5.25;100.00
12799;BME280;19250;42.646;26.980;2023-01-30T12:40:37;98877.53;;;5.82;97.20
12799;BME280;19250;42.646;26.980;2023-01-30T12:43:26;98882.81;;;6.02;95.32
12799;BME280;19250;42.646;26.980;2023-01-30T12:46:06;98881.00;;;4.79;100.00
12799;BME280;19250;42.646;26.980;2023-01-30T12:48:54;98882.03;;;5.40;99.52
12799;BME280;19250;42.646;26.980;2023-01-30T12:51:51;98867.34;;;5.98;97.72
12799;BME280;19250;42.646;26.980;2023-01-30T12:54:34;98868.31;;;5.25;98.01
12799;BME280;19250;42.646;26.980;2023-01-30T12:57:14;98865.84;;;4.92;100.00
12799;BME280;19250;42.646;26.980;2023-01-30T12:59:53;98862.25;;;5.34;100.00
12799;BME280;19250;42.646;26.980;2023-01-30T13:02:57;98859.75;;;4.37;100.00
12799;BME280;19250;42.646;26.980;2023-01-30T13:05:36;98852.38;;;3.98;100.00
12799;BME280;19250;42.646;26.980;2023-01-30T13:08:17;98854.38;;;4.28;100.00
12799;BME280;19250;42.646;26.980;2023-01-30T13:10:51;98856.50;;;5.09;100.00
12799;BME280;19250;42.646;26.980;2023-01-30T13:13:29;98846.03;;;5.48;100.00